Terminal Aerodrome Forecast
Issued by NWS Sioux Falls, SD

Home | Current Version | Previous Version | Graphics & Text | Print | Product List | Glossary Off
Versions: 1 2 3 4 5 6 7 8 9 10 11 12 13 14 15 16 17 18 19 20 21

221
FTUS43 KFSD 302327
TAFFSD
TAF
KFSD 302327Z 0100/0124 30013G19KT P6SM VCSH OVC010
     FM010200 31011KT P6SM OVC015
     FM011000 30008KT P6SM OVC009=

USA.gov is the U.S. government's official web portal to all federal, state and local government web resources and services.